PHKPC TKPN-TNCE
Flight info
| Callsign | PHKPC |
|---|---|
| Flight time | 0h 21m |
| Altitude | 3500 |
| Route | DCT |
| Aircraft | PC12/L-SBDGIRWY/LB2 |
Departure
| Time | 2026-04-13 19:51 |
|---|---|
| Airport | Vance W. Amory International Airport (TKPN) |
Arrival
| Time | 2026-04-13 20:13 |
|---|---|
| Airport | F. D. Roosevelt Airport (TNCE) |
| Time | Latitude | Longitude | Altitude | Speed | Heading |
|---|---|---|---|---|---|
| 2026-04-13 19:46 | 17.20502 | -62.59264 | 28 ft | 0 kts | 2° |
| 2026-04-13 19:48 | 17.20544 | -62.59270 | 30 ft | 2 kts | 351° |
| 2026-04-13 19:48 | 17.20546 | -62.59270 | 30 ft | 0 kts | 351° |
| 2026-04-13 19:49 | 17.20558 | -62.59284 | 30 ft | 11 kts | 299° |
| 2026-04-13 19:49 | 17.20566 | -62.59405 | 30 ft | 21 kts | 270° |
| 2026-04-13 19:49 | 17.20558 | -62.59529 | 30 ft | 6 kts | 244° |
| 2026-04-13 19:50 | 17.20556 | -62.59541 | 30 ft | 1 kts | 272° |
| 2026-04-13 19:50 | 17.20566 | -62.59537 | 30 ft | 2 kts | 63° |
| 2026-04-13 19:50 | 17.20565 | -62.59507 | 29 ft | 0 kts | 88° |
| 2026-04-13 19:51 | 17.20567 | -62.59324 | 31 ft | 59 kts | 90° |
| 2026-04-13 19:51 | 17.20576 | -62.58678 | 48 ft | 111 kts | 89° |
| 2026-04-13 19:51 | 17.20579 | -62.57835 | 486 ft | 126 kts | 91° |
| 2026-04-13 19:51 | 17.20841 | -62.56916 | 1113 ft | 141 kts | 58° |
| 2026-04-13 19:52 | 17.21676 | -62.56397 | 1897 ft | 151 kts | 12° |
| 2026-04-13 19:52 | 17.22791 | -62.56530 | 2478 ft | 174 kts | 342° |
| 2026-04-13 19:52 | 17.23878 | -62.57270 | 2885 ft | 201 kts | 316° |
| 2026-04-13 19:52 | 17.24717 | -62.58478 | 3442 ft | 204 kts | 297° |
| 2026-04-13 19:53 | 17.25118 | -62.59852 | 4219 ft | 198 kts | 276° |
| 2026-04-13 19:53 | 17.25313 | -62.61360 | 4446 ft | 212 kts | 277° |
| 2026-04-13 19:53 | 17.25661 | -62.62835 | 4622 ft | 210 kts | 287° |
| 2026-04-13 19:53 | 17.26124 | -62.64279 | 4600 ft | 213 kts | 287° |
| 2026-04-13 19:54 | 17.26583 | -62.65758 | 4631 ft | 215 kts | 287° |
| 2026-04-13 19:54 | 17.27048 | -62.67249 | 4627 ft | 214 kts | 290° |
| 2026-04-13 19:54 | 17.27886 | -62.68516 | 4633 ft | 213 kts | 313° |
| 2026-04-13 19:54 | 17.28962 | -62.69583 | 4637 ft | 214 kts | 319° |
| 2026-04-13 19:55 | 17.30088 | -62.70600 | 4637 ft | 214 kts | 320° |
| 2026-04-13 19:55 | 17.31216 | -62.71612 | 4635 ft | 214 kts | 320° |
| 2026-04-13 19:55 | 17.32334 | -62.72614 | 4638 ft | 207 kts | 320° |
| 2026-04-13 19:55 | 17.33409 | -62.73575 | 4478 ft | 196 kts | 320° |
| 2026-04-13 19:56 | 17.34448 | -62.74482 | 4311 ft | 193 kts | 321° |
| 2026-04-13 19:56 | 17.35445 | -62.75345 | 4131 ft | 177 kts | 321° |
| 2026-04-13 19:56 | 17.36386 | -62.76165 | 3891 ft | 175 kts | 321° |
| 2026-04-13 19:56 | 17.37324 | -62.76979 | 3653 ft | 174 kts | 321° |
| 2026-04-13 19:57 | 17.38253 | -62.77784 | 3432 ft | 173 kts | 321° |
| 2026-04-13 19:57 | 17.39139 | -62.78637 | 3205 ft | 174 kts | 311° |
| 2026-04-13 19:57 | 17.39860 | -62.79647 | 2988 ft | 173 kts | 304° |
| 2026-04-13 19:57 | 17.40399 | -62.80764 | 2798 ft | 171 kts | 287° |
| 2026-04-13 19:58 | 17.40462 | -62.81947 | 2863 ft | 158 kts | 255° |
| 2026-04-13 19:58 | 17.40008 | -62.83000 | 2730 ft | 160 kts | 233° |
| 2026-04-13 19:58 | 17.39270 | -62.83871 | 2635 ft | 161 kts | 219° |
| 2026-04-13 19:58 | 17.38401 | -62.84556 | 2586 ft | 155 kts | 206° |
| 2026-04-13 19:59 | 17.37396 | -62.84943 | 2740 ft | 152 kts | 184° |
| 2026-04-13 19:59 | 17.36370 | -62.84750 | 2946 ft | 151 kts | 150° |
| 2026-04-13 19:59 | 17.35544 | -62.84030 | 2967 ft | 161 kts | 131° |
| 2026-04-13 19:59 | 17.34769 | -62.83153 | 2853 ft | 164 kts | 131° |
| 2026-04-13 20:00 | 17.33991 | -62.82317 | 2699 ft | 155 kts | 133° |
| 2026-04-13 20:00 | 17.33272 | -62.81467 | 2413 ft | 154 kts | 130° |
| 2026-04-13 20:00 | 17.32567 | -62.80684 | 2524 ft | 145 kts | 136° |
| 2026-04-13 20:00 | 17.31821 | -62.79935 | 2523 ft | 160 kts | 134° |
| 2026-04-13 20:01 | 17.31006 | -62.79103 | 2540 ft | 169 kts | 134° |
| 2026-04-13 20:01 | 17.30169 | -62.78239 | 2558 ft | 163 kts | 131° |
| 2026-04-13 20:01 | 17.29604 | -62.77260 | 2596 ft | 156 kts | 110° |
| 2026-04-13 20:01 | 17.29189 | -62.76205 | 2525 ft | 158 kts | 114° |
| 2026-04-13 20:02 | 17.28737 | -62.75162 | 2519 ft | 157 kts | 115° |
| 2026-04-13 20:02 | 17.28307 | -62.74113 | 2505 ft | 158 kts | 107° |
| 2026-04-13 20:02 | 17.28198 | -62.72969 | 2480 ft | 158 kts | 87° |
| 2026-04-13 20:02 | 17.28044 | -62.71853 | 2357 ft | 160 kts | 115° |
| 2026-04-13 20:03 | 17.27380 | -62.70927 | 2285 ft | 157 kts | 135° |
| 2026-04-13 20:03 | 17.26508 | -62.70285 | 2380 ft | 152 kts | 153° |
| 2026-04-13 20:03 | 17.25485 | -62.70127 | 2607 ft | 150 kts | 184° |
| 2026-04-13 20:03 | 17.24484 | -62.70510 | 2659 ft | 164 kts | 210° |
| 2026-04-13 20:04 | 17.23679 | -62.71465 | 2812 ft | 182 kts | 240° |
| 2026-04-13 20:04 | 17.23440 | -62.72738 | 3157 ft | 184 kts | 274° |
| 2026-04-13 20:04 | 17.23934 | -62.74033 | 3019 ft | 202 kts | 304° |
| 2026-04-13 20:04 | 17.24801 | -62.75191 | 3012 ft | 200 kts | 309° |
| 2026-04-13 20:05 | 17.25688 | -62.76349 | 2907 ft | 206 kts | 309° |
| 2026-04-13 20:05 | 17.26591 | -62.77520 | 2792 ft | 207 kts | 309° |
| 2026-04-13 20:05 | 17.27497 | -62.78693 | 2674 ft | 207 kts | 309° |
| 2026-04-13 20:05 | 17.28405 | -62.79867 | 2555 ft | 207 kts | 309° |
| 2026-04-13 20:06 | 17.29299 | -62.81027 | 2551 ft | 203 kts | 309° |
| 2026-04-13 20:06 | 17.30184 | -62.82178 | 2550 ft | 202 kts | 309° |
| 2026-04-13 20:06 | 17.30769 | -62.82937 | 2554 ft | 202 kts | 309° |
| 2026-04-13 20:06 | 17.31641 | -62.84086 | 2553 ft | 202 kts | 309° |
| 2026-04-13 20:07 | 17.32509 | -62.85236 | 2552 ft | 201 kts | 309° |
| 2026-04-13 20:07 | 17.33377 | -62.86385 | 2553 ft | 201 kts | 309° |
| 2026-04-13 20:07 | 17.34248 | -62.87536 | 2552 ft | 202 kts | 309° |
| 2026-04-13 20:07 | 17.35167 | -62.88645 | 2550 ft | 202 kts | 315° |
| 2026-04-13 20:08 | 17.36156 | -62.89687 | 2551 ft | 201 kts | 316° |
| 2026-04-13 20:08 | 17.37144 | -62.90716 | 2549 ft | 200 kts | 316° |
| 2026-04-13 20:08 | 17.38129 | -62.91742 | 2551 ft | 200 kts | 316° |
| 2026-04-13 20:08 | 17.39113 | -62.92776 | 2549 ft | 199 kts | 316° |
| 2026-04-13 20:09 | 17.40047 | -62.93763 | 2412 ft | 185 kts | 316° |
| 2026-04-13 20:09 | 17.40909 | -62.94669 | 2272 ft | 161 kts | 316° |
| 2026-04-13 20:09 | 17.41671 | -62.95468 | 2099 ft | 147 kts | 316° |
| 2026-04-13 20:09 | 17.42367 | -62.96205 | 1940 ft | 143 kts | 316° |
| 2026-04-13 20:10 | 17.43051 | -62.96960 | 1794 ft | 142 kts | 316° |
| 2026-04-13 20:10 | 17.43726 | -62.97707 | 1660 ft | 141 kts | 316° |
| 2026-04-13 20:10 | 17.44401 | -62.98449 | 1529 ft | 141 kts | 316° |
| 2026-04-13 20:10 | 17.45062 | -62.99175 | 1411 ft | 136 kts | 316° |
| 2026-04-13 20:11 | 17.45721 | -62.99880 | 1253 ft | 133 kts | 317° |
| 2026-04-13 20:11 | 17.46440 | -63.00290 | 1149 ft | 111 kts | 355° |
| 2026-04-13 20:11 | 17.47181 | -63.00216 | 1023 ft | 105 kts | 19° |
| 2026-04-13 20:11 | 17.47862 | -62.99978 | 812 ft | 98 kts | 28° |
| 2026-04-13 20:12 | 17.48378 | -62.99565 | 611 ft | 94 kts | 54° |
| 2026-04-13 20:12 | 17.48801 | -62.99020 | 385 ft | 99 kts | 51° |
| 2026-04-13 20:12 | 17.49236 | -62.98471 | 181 ft | 96 kts | 51° |
| 2026-04-13 20:12 | 17.49614 | -62.98003 | 117 ft | 63 kts | 55° |
| 2026-04-13 20:13 | 17.49728 | -62.97856 | 110 ft | 8 kts | 47° |
| 2026-04-13 20:13 | 17.49721 | -62.97845 | 110 ft | 16 kts | 250° |
| 2026-04-13 20:13 | 17.49647 | -62.97954 | 114 ft | 18 kts | 232° |
| 2026-04-13 20:13 | 17.49571 | -62.98048 | 118 ft | 13 kts | 230° |
| 2026-04-13 20:14 | 17.49516 | -62.98114 | 121 ft | 13 kts | 233° |
| 2026-04-13 20:14 | 17.49459 | -62.98188 | 125 ft | 13 kts | 229° |
| 2026-04-13 20:14 | 17.49397 | -62.98233 | 127 ft | 10 kts | 164° |
| 2026-04-13 20:14 | 17.49352 | -62.98198 | 127 ft | 11 kts | 138° |
| 2026-04-13 20:15 | 17.49313 | -62.98158 | 130 ft | 5 kts | 56° |
| 2026-04-13 20:15 | 17.49328 | -62.98159 | 128 ft | 0 kts | 326° |